Time;durP1;ratioP1;P1;durP2;ratioP2;P2;SDS_P1;SDS_P2;PMS_P1;PMS_P2;Temp;Humidity;BMP_temperature;BMP_pressure;BME280_temperature;BME280_humidity;BME280_pressure;Samples;Min_cycle;Max_cycle;Signal;HPM_P1;HPM_P2
2020/12/07 00:00:33;;;;;;;5.43;2.28;;;;;;;;;;5098366;28;20098;-61
2020/12/07 00:02:59;;;;;;;4.95;1.80;;;;;;;;;;5095191;28;20051;-62
2020/12/07 00:05:25;;;;;;;3.05;1.30;;;;;;;;;;5095550;28;20495;-61
2020/12/07 00:07:51;;;;;;;4.65;1.90;;;;;;;;;;5095492;28;20028;-61
2020/12/07 00:10:17;;;;;;;3.15;1.40;;;;;;;;;;5095022;28;20119;-61
2020/12/07 00:12:45;;;;;;;5.55;3.10;;;;;;;;;;5093637;28;20024;-61
2020/12/07 00:15:13;;;;;;;8.40;3.03;;;;;;;;;;5094545;28;20055;-61
2020/12/07 00:17:39;;;;;;;6.55;2.10;;;;;;;;;;5094672;28;20043;-59
2020/12/07 00:20:06;;;;;;;4.68;2.20;;;;;;;;;;5094458;28;20153;-59
2020/12/07 00:22:32;;;;;;;6.07;2.20;;;;;;;;;;5094460;28;20047;-62
2020/12/07 00:24:59;;;;;;;5.40;2.13;;;;;;;;;;5094454;28;20054;-62
2020/12/07 00:27:29;;;;;;;2.78;1.60;;;;;;;;;;5094383;28;20020;-62
2020/12/07 00:29:55;;;;;;;2.75;1.60;;;;;;;;;;5096492;28;20115;-62
2020/12/07 00:32:22;;;;;;;3.97;1.60;;;;;;;;;;5094374;28;20024;-62
2020/12/07 00:34:49;;;;;;;2.53;1.38;;;;;;;;;;5094350;28;20107;-63
2020/12/07 00:37:15;;;;;;;3.60;1.40;;;;;;;;;;5092841;28;20507;-63
2020/12/07 00:39:41;;;;;;;4.60;2.75;;;;;;;;;;5093761;28;20046;-62
2020/12/07 00:42:09;;;;;;;7.25;3.00;;;;;;;;;;5093561;28;20020;-63
2020/12/07 00:44:36;;;;;;;4.85;2.03;;;;;;;;;;5093494;28;20123;-62
2020/12/07 00:47:02;;;;;;;3.35;1.60;;;;;;;;;;5096046;28;20428;-63
2020/12/07 00:49:28;;;;;;;5.15;2.00;;;;;;;;;;5093913;28;20040;-61
2020/12/07 00:51:55;;;;;;;2.53;1.42;;;;;;;;;;5093915;28;20028;-62
2020/12/07 00:54:22;;;;;;;3.85;2.13;;;;;;;;;;5093906;28;20749;-63
2020/12/07 00:56:52;;;;;;;3.25;1.40;;;;;;;;;;5093784;28;20028;-63
2020/12/07 00:59:18;;;;;;;4.10;1.50;;;;;;;;;;5093949;28;20020;-61
2020/12/07 01:01:45;;;;;;;3.45;1.25;;;;;;;;;;5093755;28;20409;-62
2020/12/07 01:04:11;;;;;;;4.53;1.50;;;;;;;;;;5093730;28;20051;-61
2020/12/07 01:06:37;;;;;;;5.10;1.55;;;;;;;;;;5093728;28;20039;-61
2020/12/07 01:09:03;;;;;;;2.85;1.50;;;;;;;;;;5093606;28;20028;-63
2020/12/07 01:11:29;;;;;;;3.95;1.17;;;;;;;;;;5092224;28;20384;-61
2020/12/07 01:13:55;;;;;;;4.75;1.50;;;;;;;;;;5093560;28;20024;-63
2020/12/07 01:16:22;;;;;;;2.15;1.20;;;;;;;;;;5093573;28;20064;-63
2020/12/07 01:18:49;;;;;;;4.05;1.50;;;;;;;;;;5093835;28;20487;-62
2020/12/07 01:21:16;;;;;;;3.63;1.50;;;;;;;;;;5093491;28;20024;-63
2020/12/07 01:23:44;;;;;;;3.85;1.52;;;;;;;;;;5093861;28;20495;-63
2020/12/07 01:26:11;;;;;;;3.92;1.70;;;;;;;;;;5096833;28;20547;-62
2020/12/07 01:28:37;;;;;;;3.53;1.30;;;;;;;;;;5093770;28;20036;-61
2020/12/07 01:31:03;;;;;;;4.82;1.30;;;;;;;;;;5092251;28;20383;-61
2020/12/07 01:33:29;;;;;;;3.78;1.33;;;;;;;;;;5093252;28;20095;-62
2020/12/07 01:35:56;;;;;;;2.65;1.40;;;;;;;;;;5093086;28;20537;-62
2020/12/07 01:38:22;;;;;;;3.40;1.20;;;;;;;;;;5093201;28;20107;-62
2020/12/07 01:40:49;;;;;;;2.05;1.10;;;;;;;;;;5093065;28;20069;-63
2020/12/07 01:43:15;;;;;;;3.53;1.13;;;;;;;;;;5093187;28;20048;-62
2020/12/07 01:45:41;;;;;;;2.67;1.50;;;;;;;;;;5093107;28;20032;-61
2020/12/07 01:48:09;;;;;;;3.03;1.20;;;;;;;;;;5093897;28;20440;-62
2020/12/07 01:50:36;;;;;;;2.92;1.02;;;;;;;;;;5095284;28;20058;-61
2020/12/07 01:53:02;;;;;;;3.40;0.95;;;;;;;;;;5093088;28;20031;-62
2020/12/07 01:55:28;;;;;;;4.93;1.42;;;;;;;;;;5092267;28;20092;-62
2020/12/07 01:57:54;;;;;;;3.00;1.33;;;;;;;;;;5092851;28;20103;-62
2020/12/07 02:00:22;;;;;;;4.15;1.40;;;;;;;;;;5097215;28;20101;-63
2020/12/07 02:02:49;;;;;;;3.97;1.40;;;;;;;;;;5094004;28;20016;-63
2020/12/07 02:05:15;;;;;;;6.22;1.25;;;;;;;;;;5092719;28;20056;-64
2020/12/07 02:07:41;;;;;;;3.08;1.10;;;;;;;;;;5092660;28;20059;-63
2020/12/07 02:10:07;;;;;;;3.40;1.42;;;;;;;;;;5092423;28;20039;-63
2020/12/07 02:12:33;;;;;;;4.90;1.20;;;;;;;;;;5092561;28;20353;-63
2020/12/07 02:15:00;;;;;;;2.70;1.08;;;;;;;;;;5092569;28;20020;-63
2020/12/07 02:17:26;;;;;;;3.10;1.35;;;;;;;;;;5092473;28;20024;-62
2020/12/07 02:19:52;;;;;;;2.83;1.15;;;;;;;;;;5092545;28;20085;-63
2020/12/07 02:22:18;;;;;;;2.58;1.27;;;;;;;;;;5092307;28;20028;-61
2020/12/07 02:24:44;;;;;;;2.20;0.90;;;;;;;;;;5092520;28;20024;-62
2020/12/07 02:27:10;;;;;;;4.18;1.00;;;;;;;;;;5092453;28;20043;-62
2020/12/07 02:29:36;;;;;;;4.30;0.98;;;;;;;;;;5092426;28;20116;-62
2020/12/07 02:32:16;;;;;;;2.88;0.95;;;;;;;;;;5092890;28;20024;-62
2020/12/07 02:34:42;;;;;;;2.88;0.90;;;;;;;;;;5093321;28;20410;-62
2020/12/07 02:37:09;;;;;;;4.82;1.00;;;;;;;;;;5092569;28;20028;-62
2020/12/07 02:39:35;;;;;;;2.38;0.95;;;;;;;;;;5092327;28;20029;-62
2020/12/07 02:42:02;;;;;;;3.08;0.93;;;;;;;;;;5092340;28;20028;-63
2020/12/07 02:44:29;;;;;;;2.65;0.88;;;;;;;;;;5092193;28;20384;-62
2020/12/07 02:46:55;;;;;;;3.35;1.00;;;;;;;;;;5092300;28;20024;-62
2020/12/07 02:49:21;;;;;;;1.90;0.93;;;;;;;;;;5093131;28;20118;-62
2020/12/07 02:51:47;;;;;;;1.85;0.98;;;;;;;;;;5095031;28;20043;-62
2020/12/07 02:54:13;;;;;;;4.00;1.00;;;;;;;;;;5092340;28;20449;-61
2020/12/07 02:56:40;;;;;;;2.08;0.75;;;;;;;;;;5090986;28;20028;-62
2020/12/07 02:59:06;;;;;;;2.42;0.80;;;;;;;;;;5092358;28;20031;-62
2020/12/07 03:01:32;;;;;;;3.95;0.85;;;;;;;;;;5091967;28;20094;-62
2020/12/07 03:03:58;;;;;;;3.08;0.98;;;;;;;;;;5092047;28;20487;-62
2020/12/07 03:06:24;;;;;;;1.52;0.80;;;;;;;;;;5093474;28;20024;-62
2020/12/07 03:08:50;;;;;;;1.88;0.68;;;;;;;;;;5095860;28;20472;-63
2020/12/07 03:11:16;;;;;;;5.63;1.05;;;;;;;;;;5095960;28;20028;-63
2020/12/07 03:13:42;;;;;;;1.60;0.50;;;;;;;;;;5098176;28;20032;-62
2020/12/07 03:16:08;;;;;;;3.75;1.60;;;;;;;;;;5095839;28;20035;-63
2020/12/07 03:18:35;;;;;;;2.53;0.85;;;;;;;;;;5095807;28;20024;-63
2020/12/07 03:21:01;;;;;;;2.90;0.90;;;;;;;;;;5095722;28;20533;-63
2020/12/07 03:23:27;;;;;;;2.60;1.00;;;;;;;;;;5095731;28;20374;-61
2020/12/07 03:25:53;;;;;;;1.83;0.98;;;;;;;;;;5094310;28;20459;-63
2020/12/07 03:28:19;;;;;;;1.50;0.80;;;;;;;;;;5095378;28;20621;-63
2020/12/07 03:30:45;;;;;;;1.98;0.65;;;;;;;;;;5095460;28;20050;-63
2020/12/07 03:33:11;;;;;;;3.05;0.75;;;;;;;;;;5095412;28;20024;-62
2020/12/07 03:35:37;;;;;;;1.63;0.80;;;;;;;;;;5095639;28;20031;-62
2020/12/07 03:38:04;;;;;;;2.35;0.90;;;;;;;;;;5095361;28;20031;-63
2020/12/07 03:40:32;;;;;;;1.90;0.80;;;;;;;;;;5095538;28;20107;-62
2020/12/07 03:42:58;;;;;;;2.50;1.10;;;;;;;;;;5095519;28;20020;-63
2020/12/07 03:45:25;;;;;;;1.85;0.82;;;;;;;;;;5095258;28;20032;-62
2020/12/07 03:47:51;;;;;;;1.75;0.70;;;;;;;;;;5095305;28;20020;-62
2020/12/07 03:50:17;;;;;;;1.58;0.60;;;;;;;;;;5095041;28;20043;-63
2020/12/07 03:52:43;;;;;;;2.25;0.70;;;;;;;;;;5095431;28;20027;-63
2020/12/07 03:55:09;;;;;;;2.88;0.70;;;;;;;;;;5097557;28;20039;-61
2020/12/07 03:57:35;;;;;;;1.98;0.73;;;;;;;;;;5097474;28;20027;-63
2020/12/07 04:00:01;;;;;;;1.73;0.70;;;;;;;;;;5095112;28;20039;-62
2020/12/07 04:02:29;;;;;;;2.28;0.90;;;;;;;;;;5095303;28;20113;-63
2020/12/07 04:05:02;;;;;;;2.47;0.70;;;;;;;;;;5094918;28;20027;-62
2020/12/07 04:07:28;;;;;;;1.58;0.85;;;;;;;;;;5096187;28;20157;-62
2020/12/07 04:09:55;;;;;;;4.20;0.95;;;;;;;;;;5096710;28;20072;-63
2020/12/07 04:12:21;;;;;;;1.85;0.85;;;;;;;;;;5095216;28;20486;-62
2020/12/07 04:14:47;;;;;;;4.80;0.70;;;;;;;;;;5095515;28;20024;-62
2020/12/07 04:17:13;;;;;;;1.42;0.60;;;;;;;;;;5098414;28;20133;-62
2020/12/07 04:19:39;;;;;;;3.83;1.13;;;;;;;;;;5094597;28;20016;-63
2020/12/07 04:22:05;;;;;;;2.67;0.43;;;;;;;;;;5094426;28;20460;-62
2020/12/07 04:24:32;;;;;;;1.67;0.80;;;;;;;;;;5093592;28;20028;-63
2020/12/07 04:26:58;;;;;;;2.10;0.50;;;;;;;;;;5095592;28;20040;-62
2020/12/07 04:29:24;;;;;;;3.45;0.60;;;;;;;;;;5094308;28;20522;-61
2020/12/07 04:31:50;;;;;;;2.05;0.75;;;;;;;;;;5094422;28;20028;-63
2020/12/07 04:34:16;;;;;;;1.40;0.68;;;;;;;;;;5094222;28;20100;-61
2020/12/07 04:36:42;;;;;;;2.25;0.52;;;;;;;;;;5094358;28;20031;-62
2020/12/07 04:39:08;;;;;;;1.50;0.60;;;;;;;;;;5094266;28;20341;-62
2020/12/07 04:41:34;;;;;;;1.67;0.55;;;;;;;;;;5094340;28;20062;-64
2020/12/07 04:44:00;;;;;;;3.13;0.90;;;;;;;;;;5094126;28;20024;-62
2020/12/07 04:46:27;;;;;;;0.93;0.60;;;;;;;;;;5094152;28;20055;-62
2020/12/07 04:48:53;;;;;;;2.80;0.80;;;;;;;;;;5094142;28;20485;-62
2020/12/07 04:51:21;;;;;;;3.00;0.80;;;;;;;;;;5094007;28;20028;-61
2020/12/07 04:53:48;;;;;;;1.88;0.80;;;;;;;;;;5093889;28;20031;-62
2020/12/07 04:56:15;;;;;;;2.85;0.52;;;;;;;;;;5094077;28;20024;-62
2020/12/07 04:58:43;;;;;;;2.92;0.80;;;;;;;;;;5093908;28;20028;-62
2020/12/07 05:01:09;;;;;;;3.35;0.95;;;;;;;;;;5093817;28;20043;-63
2020/12/07 05:03:36;;;;;;;1.55;0.60;;;;;;;;;;5093766;28;20483;-62
2020/12/07 05:06:02;;;;;;;4.05;1.02;;;;;;;;;;5093556;28;20074;-63
2020/12/07 05:08:28;;;;;;;3.88;0.88;;;;;;;;;;5093792;28;20063;-64
2020/12/07 05:11:00;;;;;;;2.67;0.73;;;;;;;;;;5093660;28;20043;-62
2020/12/07 05:13:37;;;;;;;1.45;0.70;;;;;;;;;;5093813;28;20016;-62
2020/12/07 05:16:03;;;;;;;1.55;0.60;;;;;;;;;;5093515;28;20031;-63
2020/12/07 05:18:32;;;;;;;1.95;0.65;;;;;;;;;;5093554;28;20016;-63
2020/12/07 05:20:59;;;;;;;1.50;0.68;;;;;;;;;;5093487;28;20452;-61
2020/12/07 05:23:25;;;;;;;2.33;0.70;;;;;;;;;;5093520;28;20032;-62
2020/12/07 05:25:51;;;;;;;2.90;2.05;;;;;;;;;;5093335;28;20020;-63
2020/12/07 05:28:28;;;;;;;1.40;0.57;;;;;;;;;;5093058;28;20024;-64
2020/12/07 05:30:54;;;;;;;4.25;0.90;;;;;;;;;;5092417;28;20043;-63
2020/12/07 05:33:20;;;;;;;1.65;0.90;;;;;;;;;;5093153;28;20482;-63
2020/12/07 05:35:53;;;;;;;3.42;0.98;;;;;;;;;;5093343;28;20024;-62
2020/12/07 05:38:20;;;;;;;2.08;0.80;;;;;;;;;;5093849;28;20085;-63
2020/12/07 05:40:46;;;;;;;4.85;0.85;;;;;;;;;;5093966;28;20494;-63
2020/12/07 05:43:13;;;;;;;2.97;0.68;;;;;;;;;;5093597;28;20024;-63
2020/12/07 05:45:40;;;;;;;1.83;0.65;;;;;;;;;;5093254;28;20031;-62
2020/12/07 05:48:07;;;;;;;2.00;0.70;;;;;;;;;;5093435;28;20434;-63
2020/12/07 05:50:36;;;;;;;2.28;0.80;;;;;;;;;;5093935;28;20123;-64
2020/12/07 05:53:03;;;;;;;3.05;1.13;;;;;;;;;;5093253;28;20100;-66
2020/12/07 05:55:29;;;;;;;2.45;1.45;;;;;;;;;;5092899;28;20047;-62
2020/12/07 05:58:05;;;;;;;3.38;0.80;;;;;;;;;;5092823;28;20511;-63
2020/12/07 06:00:32;;;;;;;2.80;0.70;;;;;;;;;;5093359;28;20024;-62
2020/12/07 06:02:59;;;;;;;1.52;0.50;;;;;;;;;;5093608;28;20418;-63
2020/12/07 06:05:25;;;;;;;2.10;0.70;;;;;;;;;;5092887;28;20016;-63
2020/12/07 06:07:54;;;;;;;2.10;0.63;;;;;;;;;;5092796;28;20085;-63
2020/12/07 06:10:22;;;;;;;2.72;0.50;;;;;;;;;;5092680;28;20089;-63
2020/12/07 06:12:50;;;;;;;1.55;0.60;;;;;;;;;;5092576;28;20102;-62
2020/12/07 06:15:19;;;;;;;0.95;0.60;;;;;;;;;;5092408;28;20028;-63
2020/12/07 06:17:49;;;;;;;2.35;0.40;;;;;;;;;;5092432;28;20032;-63
2020/12/07 06:20:37;;;;;;;1.85;0.50;;;;;;;;;;5091025;28;20032;-64
2020/12/07 06:23:03;;;;;;;1.55;0.70;;;;;;;;;;5092449;28;20032;-63
2020/12/07 06:25:30;;;;;;;2.08;0.52;;;;;;;;;;5092412;28;20480;-63
2020/12/07 06:28:04;;;;;;;2.50;0.77;;;;;;;;;;5090767;28;20066;-63
2020/12/07 06:30:32;;;;;;;2.10;0.70;;;;;;;;;;5091016;28;20028;-63
2020/12/07 06:33:03;;;;;;;2.67;0.57;;;;;;;;;;5092358;28;20035;-63
2020/12/07 06:35:29;;;;;;;4.38;1.00;;;;;;;;;;5092292;28;20027;-63
2020/12/07 06:37:55;;;;;;;1.13;0.40;;;;;;;;;;5092055;28;20024;-63
2020/12/07 06:40:25;;;;;;;2.72;0.50;;;;;;;;;;5092052;28;20095;-61
2020/12/07 06:42:51;;;;;;;2.13;0.80;;;;;;;;;;5092336;28;20343;-63
2020/12/07 06:45:22;;;;;;;3.58;0.85;;;;;;;;;;5092203;28;20028;-62
2020/12/07 06:47:49;;;;;;;3.20;0.55;;;;;;;;;;5092164;28;20087;-63
2020/12/07 06:50:17;;;;;;;1.38;0.47;;;;;;;;;;5093523;28;20031;-63
2020/12/07 06:52:45;;;;;;;1.50;0.55;;;;;;;;;;5093077;28;20028;-64
2020/12/07 06:55:12;;;;;;;1.55;0.52;;;;;;;;;;5092171;28;20020;-63
2020/12/07 06:57:41;;;;;;;1.48;0.40;;;;;;;;;;5091957;28;20059;-63
2020/12/07 07:00:07;;;;;;;1.75;0.50;;;;;;;;;;5091948;28;20111;-63
2020/12/07 07:02:34;;;;;;;1.80;0.45;;;;;;;;;;5092347;28;20035;-63
2020/12/07 07:05:01;;;;;;;2.08;0.65;;;;;;;;;;5092681;28;20380;-63
2020/12/07 07:07:29;;;;;;;0.82;0.40;;;;;;;;;;5096438;28;20024;-62
2020/12/07 07:09:55;;;;;;;1.75;0.57;;;;;;;;;;5091939;28;20032;-63
2020/12/07 07:12:22;;;;;;;2.67;0.85;;;;;;;;;;5091869;28;20027;-63
2020/12/07 07:14:49;;;;;;;4.55;0.90;;;;;;;;;;5091785;28;20103;-64
2020/12/07 07:17:16;;;;;;;2.28;0.60;;;;;;;;;;5091855;28;20028;-63
2020/12/07 07:19:42;;;;;;;2.97;0.80;;;;;;;;;;5091857;28;20021;-63
2020/12/07 07:22:09;;;;;;;2.20;0.70;;;;;;;;;;5091779;28;20032;-63
2020/12/07 07:30:03;;;;;;;2.50;0.65;;;;;;;;;;5092042;28;20047;-65
2020/12/07 07:32:29;;;;;;;2.50;0.90;;;;;;;;;;5090259;28;20028;-65
2020/12/07 07:34:55;;;;;;;1.23;0.65;;;;;;;;;;5091778;28;20032;-65
2020/12/07 07:37:22;;;;;;;1.15;0.40;;;;;;;;;;5091491;28;20099;-65
2020/12/07 07:39:48;;;;;;;2.45;0.77;;;;;;;;;;5091853;28;20055;-64
2020/12/07 07:42:15;;;;;;;4.07;0.60;;;;;;;;;;5091959;28;20027;-63
2020/12/07 07:44:43;;;;;;;1.42;0.80;;;;;;;;;;5093822;28;20460;-62
2020/12/07 07:47:15;;;;;;;2.38;0.68;;;;;;;;;;5094539;28;20081;-63
2020/12/07 07:53:23;;;;;;;2.20;0.85;;;;;;;;;;5091940;28;20119;-64
2020/12/07 08:07:52;;;;;;;1.33;0.60;;;;;;;;;;5095166;28;20055;-61
2020/12/07 08:17:53;;;;;;;3.83;0.88;;;;;;;;;;5095097;28;20082;-63
2020/12/07 08:20:22;;;;;;;4.43;0.70;;;;;;;;;;5091388;28;20023;-62
2020/12/07 08:22:55;;;;;;;4.00;0.88;;;;;;;;;;5093406;28;20089;-63
2020/12/07 08:25:39;;;;;;;2.83;1.42;;;;;;;;;;5094736;28;20032;-63
2020/12/07 08:28:15;;;;;;;3.65;0.90;;;;;;;;;;5094945;28;20056;-64
2020/12/07 08:30:41;;;;;;;2.78;0.70;;;;;;;;;;5096795;28;20123;-62
2020/12/07 08:33:13;;;;;;;1.40;0.60;;;;;;;;;;5095808;28;20114;-62
2020/12/07 08:35:39;;;;;;;2.33;0.60;;;;;;;;;;5094572;28;20024;-63
2020/12/07 08:38:05;;;;;;;3.00;0.65;;;;;;;;;;5094236;28;20111;-63
2020/12/07 08:40:32;;;;;;;0.77;0.43;;;;;;;;;;5094434;28;20016;-63
2020/12/07 08:42:59;;;;;;;2.08;0.70;;;;;;;;;;5094430;28;20021;-63
2020/12/07 08:45:25;;;;;;;1.33;0.43;;;;;;;;;;5094289;28;20035;-64
2020/12/07 08:47:51;;;;;;;1.30;0.60;;;;;;;;;;5094493;28;20516;-63
2020/12/07 08:50:17;;;;;;;2.20;0.68;;;;;;;;;;5092571;28;20060;-62
2020/12/07 08:52:43;;;;;;;2.03;0.90;;;;;;;;;;5094188;28;20107;-62
2020/12/07 08:55:10;;;;;;;2.08;1.05;;;;;;;;;;5094212;28;20081;-62
2020/12/07 08:57:36;;;;;;;3.20;0.93;;;;;;;;;;5093904;28;20024;-64
2020/12/07 09:00:02;;;;;;;3.20;1.25;;;;;;;;;;5093946;28;20418;-64
2020/12/07 09:02:29;;;;;;;2.25;1.10;;;;;;;;;;5093977;28;20024;-64
2020/12/07 09:04:55;;;;;;;2.65;1.00;;;;;;;;;;5093769;28;20035;-63
2020/12/07 09:07:21;;;;;;;7.22;1.15;;;;;;;;;;5092009;28;20034;-62
2020/12/07 09:09:47;;;;;;;1.67;0.60;;;;;;;;;;5094072;28;20074;-62
2020/12/07 09:12:13;;;;;;;1.77;0.60;;;;;;;;;;5094852;28;20035;-63
2020/12/07 09:14:39;;;;;;;2.28;0.80;;;;;;;;;;5093721;28;20036;-65
2020/12/07 09:17:05;;;;;;;2.65;0.77;;;;;;;;;;5096369;28;20053;-63
2020/12/07 09:19:34;;;;;;;3.05;0.73;;;;;;;;;;5094131;28;20472;-65
2020/12/07 09:22:00;;;;;;;4.35;0.80;;;;;;;;;;5093793;28;20442;-63
2020/12/07 09:24:26;;;;;;;2.63;1.20;;;;;;;;;;5093650;28;20566;-63
2020/12/07 09:26:52;;;;;;;4.57;1.30;;;;;;;;;;5093695;28;20087;-66
2020/12/07 09:29:18;;;;;;;7.05;3.40;;;;;;;;;;5093235;28;20136;-61
2020/12/07 09:31:44;;;;;;;9.07;4.72;;;;;;;;;;5093653;28;20024;-63
2020/12/07 09:34:10;;;;;;;6.03;2.78;;;;;;;;;;5093388;28;20096;-63
2020/12/07 09:36:36;;;;;;;7.75;3.03;;;;;;;;;;5099400;28;20461;-61
2020/12/07 09:39:03;;;;;;;7.50;3.20;;;;;;;;;;5093378;28;20055;-61
2020/12/07 09:41:29;;;;;;;7.03;3.65;;;;;;;;;;5093458;28;20081;-66
2020/12/07 09:43:55;;;;;;;7.65;3.15;;;;;;;;;;5092213;28;20051;-63
2020/12/07 09:46:21;;;;;;;10.93;5.55;;;;;;;;;;5093331;28;20423;-63
2020/12/07 09:48:47;;;;;;;8.60;5.07;;;;;;;;;;5093615;28;20083;-64
2020/12/07 09:51:14;;;;;;;6.30;3.90;;;;;;;;;;5093765;28;20055;-63
2020/12/07 09:53:40;;;;;;;4.10;2.45;;;;;;;;;;5093572;28;20121;-64
2020/12/07 09:56:06;;;;;;;5.20;2.58;;;;;;;;;;5096851;28;20027;-64
2020/12/07 09:58:33;;;;;;;4.03;1.88;;;;;;;;;;5093832;28;20028;-61
2020/12/07 10:00:59;;;;;;;5.80;2.40;;;;;;;;;;5093300;28;20020;-60
2020/12/07 10:03:26;;;;;;;5.70;2.35;;;;;;;;;;5091821;28;20028;-62
2020/12/07 10:05:52;;;;;;;4.65;2.42;;;;;;;;;;5093822;28;20499;-62
2020/12/07 10:08:18;;;;;;;5.85;2.95;;;;;;;;;;5092551;28;20453;-63
2020/12/07 10:10:47;;;;;;;6.45;2.92;;;;;;;;;;5092718;28;20032;-62
2020/12/07 10:13:13;;;;;;;;;;;;;;;;;;5093177;28;20036;-63
2020/12/07 10:15:39;;;;;;;5.35;3.15;;;;;;;;;;5092572;28;19907;-72
2020/12/07 10:18:05;;;;;;;7.53;4.38;;;;;;;;;;5093277;28;20044;-74
2020/12/07 10:20:31;;;;;;;8.27;3.28;;;;;;;;;;5093006;28;20077;-75
2020/12/07 10:22:58;;;;;;;5.65;3.20;;;;;;;;;;5089671;28;20020;-74
2020/12/07 10:25:24;;;;;;;4.20;2.80;;;;;;;;;;5089476;28;20027;-74
2020/12/07 10:27:50;;;;;;;6.00;2.72;;;;;;;;;;5089448;28;20018;-74
2020/12/07 10:30:16;;;;;;;5.53;2.33;;;;;;;;;;5095711;28;20662;-74
2020/12/07 10:32:42;;;;;;;4.90;2.80;;;;;;;;;;5091569;28;20024;-75
2020/12/07 10:35:08;;;;;;;5.10;2.35;;;;;;;;;;5091733;28;20024;-76
2020/12/07 10:37:35;;;;;;;5.18;2.47;;;;;;;;;;5092846;28;20042;-74
2020/12/07 10:40:02;;;;;;;5.13;2.03;;;;;;;;;;5093150;28;20032;-75
2020/12/07 10:42:28;;;;;;;4.22;1.73;;;;;;;;;;5092825;28;20020;-75
2020/12/07 10:44:55;;;;;;;4.18;1.83;;;;;;;;;;5091750;28;20373;-74
2020/12/07 10:47:21;;;;;;;5.20;3.25;;;;;;;;;;5094868;28;20012;-72
2020/12/07 10:49:47;;;;;;;11.07;4.18;;;;;;;;;;5097160;28;20032;-75
2020/12/07 10:52:14;;;;;;;13.80;5.50;;;;;;;;;;5096174;28;20038;-74
2020/12/07 10:54:41;;;;;;;7.25;4.13;;;;;;;;;;5094412;28;20070;-75
2020/12/07 10:57:07;;;;;;;12.18;4.40;;;;;;;;;;5094376;28;20024;-72
2020/12/07 10:59:33;;;;;;;6.90;3.17;;;;;;;;;;5092591;28;20039;-74
2020/12/07 11:01:59;;;;;;;6.03;2.50;;;;;;;;;;5091653;28;20032;-75
2020/12/07 11:04:25;;;;;;;5.43;2.25;;;;;;;;;;5094416;28;20468;-73
2020/12/07 11:06:53;;;;;;;3.97;2.00;;;;;;;;;;5092871;28;20035;-73
2020/12/07 11:09:25;;;;;;;4.10;2.10;;;;;;;;;;5092314;28;20059;-75
2020/12/07 11:11:57;;;;;;;4.55;1.90;;;;;;;;;;5092282;28;20044;-73
2020/12/07 11:14:23;;;;;;;4.55;1.75;;;;;;;;;;5092560;28;20027;-73
2020/12/07 11:16:49;;;;;;;5.13;1.60;;;;;;;;;;5092732;28;20480;-74
2020/12/07 11:19:15;;;;;;;4.68;1.42;;;;;;;;;;5092628;28;20020;-73
2020/12/07 11:21:41;;;;;;;5.63;1.70;;;;;;;;;;5094095;28;20631;-73
2020/12/07 11:24:07;;;;;;;5.60;1.88;;;;;;;;;;5092518;28;20024;-74
2020/12/07 11:26:34;;;;;;;5.55;3.17;;;;;;;;;;5092095;28;20032;-73
2020/12/07 11:29:00;;;;;;;5.15;2.45;;;;;;;;;;5094748;28;20028;-74
2020/12/07 11:31:26;;;;;;;5.68;2.47;;;;;;;;;;5095880;28;20108;-74
2020/12/07 11:33:55;;;;;;;4.22;1.85;;;;;;;;;;5096533;28;20031;-76
2020/12/07 11:36:21;;;;;;;3.38;1.90;;;;;;;;;;5095810;28;20078;-74
2020/12/07 11:44:17;;;;;;;3.53;1.58;;;;;;;;;;5098472;28;20043;-76
2020/12/07 11:47:17;;;;;;;5.45;2.60;;;;;;;;;;5095911;28;20026;-74
2020/12/07 11:49:36;;;;;;;4.22;2.30;;;;;;;;;;5097831;28;20028;-75
2020/12/07 11:52:03;;;;;;;6.05;2.20;;;;;;;;;;5097893;28;20024;-74
2020/12/07 11:54:29;;;;;;;4.13;1.80;;;;;;;;;;5095924;28;20137;-76
2020/12/07 11:56:55;;;;;;;8.63;3.05;;;;;;;;;;5095447;28;20030;-74
2020/12/07 11:59:22;;;;;;;6.32;2.55;;;;;;;;;;5095588;28;20026;-76
2020/12/07 12:01:48;;;;;;;5.90;2.13;;;;;;;;;;5095220;28;20467;-74
2020/12/07 12:04:14;;;;;;;5.35;1.83;;;;;;;;;;5095629;28;20024;-74
2020/12/07 12:06:42;;;;;;;6.03;1.95;;;;;;;;;;5097086;28;20087;-74
2020/12/07 12:09:12;;;;;;;3.60;1.57;;;;;;;;;;5096345;28;20028;-75
2020/12/07 12:11:39;;;;;;;2.15;1.27;;;;;;;;;;5098062;28;20049;-73
2020/12/07 12:14:08;;;;;;;5.82;1.75;;;;;;;;;;5097606;28;20433;-74
2020/12/07 12:16:35;;;;;;;2.70;0.98;;;;;;;;;;5095496;28;20464;-75
2020/12/07 12:19:01;;;;;;;3.97;1.17;;;;;;;;;;5095572;28;20056;-74
2020/12/07 12:21:29;;;;;;;3.28;1.33;;;;;;;;;;5094848;28;20491;-74
2020/12/07 12:23:55;;;;;;;5.38;1.08;;;;;;;;;;5095273;28;20113;-74
2020/12/07 12:26:21;;;;;;;2.28;0.90;;;;;;;;;;5095116;28;20024;-74
2020/12/07 12:28:48;;;;;;;4.70;1.73;;;;;;;;;;5095247;28;20055;-71
2020/12/07 12:31:15;;;;;;;8.02;2.95;;;;;;;;;;5095415;28;20032;-72
2020/12/07 12:33:43;;;;;;;2.50;1.00;;;;;;;;;;5095099;28;20078;-72
2020/12/07 12:36:12;;;;;;;3.78;1.25;;;;;;;;;;5095045;28;20028;-72
2020/12/07 12:38:38;;;;;;;5.07;1.65;;;;;;;;;;5094391;28;20028;-73
2020/12/07 12:41:05;;;;;;;7.80;1.80;;;;;;;;;;5093582;28;20073;-69
2020/12/07 12:43:31;;;;;;;5.63;1.20;;;;;;;;;;5096087;28;20035;-66
2020/12/07 12:45:57;;;;;;;8.23;1.52;;;;;;;;;;5098811;28;20024;-69
2020/12/07 12:48:23;;;;;;;3.15;1.02;;;;;;;;;;5094496;28;20031;-69
2020/12/07 12:50:49;;;;;;;2.85;1.00;;;;;;;;;;5095454;28;20111;-66
2020/12/07 12:53:15;;;;;;;3.15;1.20;;;;;;;;;;5096172;28;20106;-67
2020/12/07 12:55:41;;;;;;;3.45;1.08;;;;;;;;;;5095837;28;20069;-68
2020/12/07 12:58:07;;;;;;;4.03;1.52;;;;;;;;;;5094524;28;20452;-70
2020/12/07 13:00:34;;;;;;;4.22;1.15;;;;;;;;;;5093001;28;20024;-68
2020/12/07 13:03:00;;;;;;;5.40;2.28;;;;;;;;;;5092547;28;20012;-67
2020/12/07 13:05:27;;;;;;;5.20;1.88;;;;;;;;;;5092471;28;20022;-67
2020/12/07 13:07:53;;;;;;;4.68;2.17;;;;;;;;;;5093278;28;20042;-69
2020/12/07 13:10:20;;;;;;;4.88;2.78;;;;;;;;;;5093976;28;20048;-66
2020/12/07 13:12:46;;;;;;;8.68;2.90;;;;;;;;;;5091233;28;20046;-64
2020/12/07 13:15:13;;;;;;;9.65;3.65;;;;;;;;;;5091807;28;20058;-64
2020/12/07 13:17:41;;;;;;;5.57;2.83;;;;;;;;;;5092025;28;20028;-65
2020/12/07 13:20:10;;;;;;;5.40;2.90;;;;;;;;;;5092890;28;20050;-67
2020/12/07 13:22:44;;;;;;;;;;;;;;;;;;5094064;28;20437;-68
2020/12/07 13:25:18;;;;;;;10.30;3.20;;;;;;;;;;5093512;28;19907;-73
2020/12/07 13:28:00;;;;;;;9.00;3.05;;;;;;;;;;5093432;28;20050;-73
2020/12/07 13:30:27;;;;;;;19.50;7.63;;;;;;;;;;5093769;28;20036;-73
2020/12/07 13:32:53;;;;;;;9.82;3.80;;;;;;;;;;5092584;28;20354;-70
2020/12/07 13:35:19;;;;;;;12.57;4.65;;;;;;;;;;5093583;28;20028;-74
2020/12/07 13:37:46;;;;;;;9.75;4.88;;;;;;;;;;5093372;28;20039;-71
2020/12/07 13:40:14;;;;;;;9.65;3.80;;;;;;;;;;5093494;28;20380;-69
2020/12/07 13:42:40;;;;;;;8.45;3.88;;;;;;;;;;5092230;28;20039;-61
2020/12/07 13:45:06;;;;;;;6.60;3.53;;;;;;;;;;5093422;28;20107;-61
2020/12/07 13:47:32;;;;;;;44.80;21.30;;;;;;;;;;5093318;28;20017;-60
2020/12/07 13:49:58;;;;;;;146.90;60.13;;;;;;;;;;5092982;28;20460;-61
2020/12/07 13:52:25;;;;;;;81.65;37.03;;;;;;;;;;5092743;28;20082;-61
2020/12/07 13:54:51;;;;;;;32.97;14.05;;;;;;;;;;5093040;28;20016;-63
2020/12/07 13:57:17;;;;;;;30.83;13.35;;;;;;;;;;5093118;28;20307;-62
2020/12/07 13:59:43;;;;;;;19.90;9.30;;;;;;;;;;5094036;28;20353;-61
2020/12/07 14:02:09;;;;;;;20.08;8.88;;;;;;;;;;5093333;28;20487;-62
2020/12/07 14:04:46;;;;;;;15.27;6.38;;;;;;;;;;5093563;28;20384;-62
2020/12/07 14:07:12;;;;;;;13.25;6.05;;;;;;;;;;5093659;28;20117;-63
2020/12/07 14:09:38;;;;;;;12.38;5.95;;;;;;;;;;5095230;28;20082;-60
2020/12/07 14:12:04;;;;;;;12.10;5.03;;;;;;;;;;5098481;28;20109;-61
2020/12/07 14:14:31;;;;;;;12.48;5.10;;;;;;;;;;5093821;28;20085;-61
2020/12/07 14:17:01;;;;;;;12.38;5.30;;;;;;;;;;5092543;28;20537;-61
2020/12/07 14:19:34;;;;;;;9.63;5.13;;;;;;;;;;5092949;28;20072;-61
2020/12/07 14:40:23;;;;;;;4.28;1.52;;;;;;;;;;5094443;28;20027;-61
2020/12/07 14:42:50;;;;;;;6.00;1.50;;;;;;;;;;5092322;28;20036;-62
2020/12/07 14:45:20;;;;;;;5.70;1.40;;;;;;;;;;5091398;28;20020;-61
2020/12/07 14:47:53;;;;;;;3.05;1.60;;;;;;;;;;5092393;28;20067;-61
2020/12/07 14:50:35;;;;;;;11.07;3.10;;;;;;;;;;5092121;28;20507;-63
2020/12/07 14:53:07;;;;;;;6.13;2.50;;;;;;;;;;5092689;28;20027;-60
2020/12/07 14:55:41;;;;;;;4.65;2.10;;;;;;;;;;5092534;28;20016;-62
2020/12/07 15:06:21;;;;;;;10.20;4.60;;;;;;;;;;5096419;28;20039;-63
2020/12/07 15:11:40;;;;;;;9.50;4.28;;;;;;;;;;5096606;28;20599;-64
2020/12/07 15:14:06;;;;;;;15.27;5.90;;;;;;;;;;5096345;28;20020;-59
2020/12/07 15:16:33;;;;;;;10.10;4.82;;;;;;;;;;5096264;28;20107;-60
2020/12/07 15:18:59;;;;;;;8.27;4.38;;;;;;;;;;5095130;28;20028;-60
2020/12/07 15:21:26;;;;;;;10.00;3.17;;;;;;;;;;5098154;28;20035;-61
2020/12/07 15:23:52;;;;;;;8.23;3.50;;;;;;;;;;5097424;28;20114;-63
2020/12/07 15:26:19;;;;;;;6.75;3.03;;;;;;;;;;5096671;28;20527;-64
2020/12/07 15:28:45;;;;;;;10.13;4.88;;;;;;;;;;5094572;28;20111;-61
2020/12/07 15:31:12;;;;;;;9.52;3.72;;;;;;;;;;5095863;28;20028;-62
2020/12/07 15:33:39;;;;;;;9.52;5.22;;;;;;;;;;5096326;28;20533;-62
2020/12/07 15:36:07;;;;;;;11.45;6.22;;;;;;;;;;5096485;28;20020;-61
2020/12/07 15:38:37;;;;;;;11.82;6.20;;;;;;;;;;5098893;28;20024;-59
2020/12/07 15:41:04;;;;;;;12.23;5.45;;;;;;;;;;5096061;28;20028;-60
2020/12/07 15:43:30;;;;;;;9.18;4.60;;;;;;;;;;5096235;28;20081;-60
2020/12/07 15:45:56;;;;;;;9.20;3.45;;;;;;;;;;5095659;28;20103;-61